createdAt,value
2023-05-11T00:01:36.397Z,100122.14
2023-05-11T00:04:03.220Z,100121.40
2023-05-11T00:06:30.194Z,100121.83
2023-05-11T00:08:57.097Z,100125.44
2023-05-11T00:11:23.904Z,100127.60
2023-05-11T00:13:50.579Z,100127.13
2023-05-11T00:16:17.398Z,100130.55
2023-05-11T00:18:44.562Z,100131.80
2023-05-11T00:21:11.537Z,100127.98
2023-05-11T00:23:38.529Z,100125.09
2023-05-11T00:26:05.578Z,100128.73
2023-05-11T00:28:32.289Z,100127.35
2023-05-11T00:30:59.316Z,100127.73
2023-05-11T00:33:26.343Z,100130.68
2023-05-11T00:35:53.224Z,100129.39
2023-05-11T00:38:19.977Z,100131.27
2023-05-11T00:40:48.492Z,100131.64
2023-05-11T00:43:15.801Z,100130.66
2023-05-11T00:45:43.872Z,100134.86
2023-05-11T00:48:10.773Z,100133.60
2023-05-11T00:50:37.616Z,100132.15
2023-05-11T00:53:04.404Z,100131.17
2023-05-11T00:55:31.630Z,100129.33
2023-05-11T00:57:58.430Z,100130.64
2023-05-11T01:00:25.381Z,100135.96
2023-05-11T01:02:52.643Z,100134.73
2023-05-11T01:05:19.982Z,100136.94
2023-05-11T01:07:53.186Z,100137.98
2023-05-11T01:10:37.222Z,100139.81
2023-05-11T01:13:31.569Z,100139.90
2023-05-11T01:15:58.593Z,100135.91
2023-05-11T01:18:39.948Z,100136.40
2023-05-11T01:21:10.569Z,100133.87
2023-05-11T01:23:40.575Z,100138.20
2023-05-11T01:26:16.805Z,100139.84
2023-05-11T01:29:02.898Z,100140.86
2023-05-11T01:31:33.546Z,100140.55
2023-05-11T01:34:05.849Z,100141.05
2023-05-11T01:36:34.412Z,100142.08
2023-05-11T01:39:03.205Z,100141.95
2023-05-11T01:41:31.436Z,100143.55
2023-05-11T01:44:00.242Z,100139.89
2023-05-11T01:46:27.810Z,100137.08
2023-05-11T01:48:56.311Z,100141.59
2023-05-11T01:51:28.698Z,100143.05
2023-05-11T01:53:56.035Z,100142.11
2023-05-11T01:56:23.112Z,100140.47
2023-05-11T01:58:49.877Z,100143.59
2023-05-11T02:01:17.935Z,100141.66
2023-05-11T02:03:44.769Z,100140.95
2023-05-11T02:06:11.632Z,100142.50
2023-05-11T02:08:39.210Z,100141.95
2023-05-11T02:11:06.094Z,100142.35
2023-05-11T02:13:34.142Z,100143.23
2023-05-11T02:16:00.973Z,100146.15
2023-05-11T02:18:27.990Z,100148.55
2023-05-11T02:20:58.982Z,100153.45
2023-05-11T02:23:27.117Z,100152.55
2023-05-11T02:25:54.195Z,100151.06
2023-05-11T02:28:21.660Z,100149.71
2023-05-11T02:30:50.207Z,100152.96
2023-05-11T02:33:22.095Z,100153.83
2023-05-11T02:35:49.045Z,100157.06
2023-05-11T02:38:16.496Z,100153.75
2023-05-11T02:40:47.812Z,100157.06
2023-05-11T02:43:21.569Z,100158.85
2023-05-11T02:45:53.788Z,100157.73
2023-05-11T02:48:26.275Z,100161.14
2023-05-11T02:50:54.536Z,100165.23
2023-05-11T02:53:23.639Z,100163.08
2023-05-11T02:55:50.705Z,100166.72
2023-05-11T02:58:18.092Z,100167.09
2023-05-11T03:00:47.285Z,100169.06
2023-05-11T03:03:14.624Z,100168.09
2023-05-11T03:05:41.556Z,100169.06
2023-05-11T03:08:08.711Z,100174.33
2023-05-11T03:10:36.678Z,100181.60
2023-05-11T03:13:03.510Z,100180.20
2023-05-11T03:15:30.642Z,100181.94
2023-05-11T03:17:58.567Z,100186.23
2023-05-11T03:20:25.473Z,100185.98
2023-05-11T03:22:52.355Z,100186.84
2023-05-11T03:25:19.297Z,100189.41
2023-05-11T03:27:46.499Z,100190.70
2023-05-11T03:30:14.224Z,100192.98
2023-05-11T03:32:44.012Z,100198.91
2023-05-11T03:35:10.937Z,100199.39
2023-05-11T03:37:38.065Z,100203.16
2023-05-11T03:40:06.059Z,100204.41
2023-05-11T03:42:38.675Z,100210.26
2023-05-11T03:45:06.561Z,100207.57
2023-05-11T03:47:33.987Z,100210.17
2023-05-11T03:50:01.298Z,100213.70
2023-05-11T03:52:28.921Z,100214.13
2023-05-11T03:54:56.111Z,100213.02
2023-05-11T03:57:25.414Z,100219.23
2023-05-11T03:59:52.239Z,100221.95
2023-05-11T04:02:19.295Z,100224.13
2023-05-11T04:04:46.187Z,100226.23
2023-05-11T04:07:13.096Z,100227.83
2023-05-11T04:09:39.869Z,100224.35
2023-05-11T04:12:07.473Z,100230.97
2023-05-11T04:14:34.472Z,100236.40
2023-05-11T04:17:01.243Z,100239.52
2023-05-11T04:19:28.529Z,100241.89
2023-05-11T04:21:55.235Z,100243.46
2023-05-11T04:24:22.012Z,100248.10
2023-05-11T04:26:48.738Z,100246.01
2023-05-11T04:29:15.446Z,100248.23
2023-05-11T04:31:42.167Z,100250.08
2023-05-11T04:34:08.996Z,100253.66
2023-05-11T04:36:36.835Z,100255.40
2023-05-11T04:39:04.245Z,100258.61
2023-05-11T04:41:32.522Z,100256.80
2023-05-11T04:44:01.043Z,100262.27
2023-05-11T04:46:28.815Z,100262.13
2023-05-11T04:48:56.061Z,100266.22
2023-05-11T04:51:23.214Z,100263.49
2023-05-11T04:53:50.491Z,100266.81
2023-05-11T04:56:20.734Z,100270.59
2023-05-11T04:58:48.840Z,100269.38
2023-05-11T05:01:15.639Z,100278.42
2023-05-11T05:03:42.609Z,100273.92
2023-05-11T05:06:09.355Z,100278.51
2023-05-11T05:08:37.129Z,100281.77
2023-05-11T05:11:04.469Z,100281.64
2023-05-11T05:13:31.236Z,100281.20
2023-05-11T05:15:58.046Z,100286.55
2023-05-11T05:18:24.970Z,100284.00
2023-05-11T05:20:51.871Z,100284.98
2023-05-11T05:23:18.835Z,100286.33
2023-05-11T05:25:46.001Z,100290.64
2023-05-11T05:28:13.050Z,100276.10
2023-05-11T05:30:40.598Z,100272.73
2023-05-11T05:33:07.626Z,100271.91
2023-05-11T05:35:35.323Z,100267.85
2023-05-11T05:38:02.094Z,100268.92
2023-05-11T05:40:28.968Z,100280.22
2023-05-11T05:42:56.305Z,100284.77
2023-05-11T05:45:24.112Z,100293.19
2023-05-11T05:47:51.844Z,100289.34
2023-05-11T05:50:19.608Z,100292.88
2023-05-11T05:52:47.645Z,100296.70
2023-05-11T05:55:14.568Z,100306.30
2023-05-11T05:57:43.043Z,100304.27
2023-05-11T06:00:11.120Z,100302.36
2023-05-11T06:02:41.634Z,100303.77
2023-05-11T06:05:11.173Z,100304.73
2023-05-11T06:07:38.741Z,100304.67
2023-05-11T06:10:06.172Z,100293.41
2023-05-11T06:12:33.782Z,100290.78
2023-05-11T06:15:00.897Z,100292.05
2023-05-11T06:17:28.797Z,100294.61
2023-05-11T06:19:55.645Z,100289.08
2023-05-11T06:22:23.764Z,100288.31
2023-05-11T06:24:50.957Z,100292.77
2023-05-11T06:27:18.693Z,100288.36
2023-05-11T06:29:45.768Z,100288.22
2023-05-11T06:32:19.006Z,100292.53
2023-05-11T06:34:46.637Z,100291.23
2023-05-11T06:37:20.302Z,100293.19
2023-05-11T06:39:49.070Z,100289.37
2023-05-11T06:42:15.941Z,100289.92
2023-05-11T06:44:42.859Z,100294.46
2023-05-11T06:47:10.701Z,100293.14
2023-05-11T06:49:37.704Z,100304.44
2023-05-11T06:52:04.498Z,100308.37
2023-05-11T06:54:31.364Z,100316.15
2023-05-11T06:56:58.333Z,100320.88
2023-05-11T06:59:26.501Z,100327.87
2023-05-11T07:01:53.184Z,100328.29
2023-05-11T07:04:19.965Z,100310.86
2023-05-11T07:06:46.702Z,100309.43
2023-05-11T07:09:13.437Z,100305.36
2023-05-11T07:11:40.878Z,100304.83
2023-05-11T07:14:07.898Z,100310.86
2023-05-11T07:16:37.781Z,100307.78
2023-05-11T07:19:05.894Z,100314.80
2023-05-11T07:21:33.883Z,100319.51
2023-05-11T07:24:00.662Z,100314.92
2023-05-11T07:26:27.430Z,100311.77
2023-05-11T07:28:54.323Z,100311.73
2023-05-11T07:31:21.852Z,100309.04
2023-05-11T07:33:48.653Z,100311.52
2023-05-11T07:36:15.415Z,100310.34
2023-05-11T07:38:42.128Z,100308.69
2023-05-11T07:41:10.796Z,100309.77
2023-05-11T07:43:39.292Z,100313.17
2023-05-11T07:46:06.746Z,100311.73
2023-05-11T07:48:33.523Z,100310.21
2023-05-11T07:51:01.097Z,100306.10
2023-05-11T07:53:28.329Z,100306.95
2023-05-11T07:55:55.576Z,100303.60
2023-05-11T07:58:22.574Z,100301.01
2023-05-11T08:00:49.302Z,100296.45
2023-05-11T08:03:16.284Z,100302.52
2023-05-11T08:05:43.144Z,100296.40
2023-05-11T08:08:10.077Z,100298.33
2023-05-11T08:10:37.041Z,100301.18
2023-05-11T08:13:03.753Z,100299.20
2023-05-11T08:15:30.500Z,100295.48
2023-05-11T08:17:57.337Z,100296.18
2023-05-11T08:20:24.254Z,100296.95
2023-05-11T08:22:51.106Z,100299.00
2023-05-11T08:25:18.264Z,100298.48
2023-05-11T08:27:45.305Z,100294.46
2023-05-11T08:30:12.642Z,100289.69
2023-05-11T08:32:57.222Z,100294.30
2023-05-11T08:35:25.212Z,100296.52
2023-05-11T08:37:51.916Z,100298.20
2023-05-11T08:40:18.956Z,100300.48
2023-05-11T08:42:45.780Z,100301.50
2023-05-11T08:45:13.043Z,100301.69
2023-05-11T08:47:40.230Z,100299.43
2023-05-11T08:50:07.232Z,100301.96
2023-05-11T08:52:34.333Z,100301.66
2023-05-11T08:55:01.168Z,100303.11
2023-05-11T08:57:28.939Z,100303.48
2023-05-11T08:59:55.713Z,100298.05
2023-05-11T09:02:22.543Z,100297.11
2023-05-11T09:04:49.444Z,100301.45
2023-05-11T09:07:19.136Z,100300.86
2023-05-11T09:09:46.662Z,100301.89
2023-05-11T09:12:13.697Z,100299.09
2023-05-11T09:14:40.581Z,100297.60
2023-05-11T09:17:07.693Z,100292.75
2023-05-11T09:19:34.658Z,100289.15
2023-05-11T09:22:01.376Z,100288.07
2023-05-11T09:24:28.123Z,100291.95
2023-05-11T09:29:51.952Z,100286.08
2023-05-11T09:32:19.024Z,100283.60
2023-05-11T09:34:46.199Z,100288.16
2023-05-11T09:37:17.419Z,100283.96
2023-05-11T09:42:20.901Z,100281.72
2023-05-11T09:44:47.690Z,100275.79
2023-05-11T09:47:16.840Z,100276.11
2023-05-11T09:49:44.419Z,100272.29
2023-05-11T09:52:15.089Z,100269.08
2023-05-11T09:54:43.504Z,100264.34
2023-05-11T09:57:21.926Z,100260.42
2023-05-11T09:59:49.369Z,100259.54
2023-05-11T10:02:23.132Z,100261.89
2023-05-11T10:04:50.718Z,100260.30
2023-05-11T10:07:33.858Z,100260.84
2023-05-11T10:10:01.461Z,100261.67
2023-05-11T10:12:28.734Z,100260.42
2023-05-11T10:14:59.212Z,100261.91
2023-05-11T10:17:26.048Z,100258.02
2023-05-11T10:19:54.451Z,100259.34
2023-05-11T10:22:21.203Z,100259.30
2023-05-11T10:24:48.032Z,100252.67
2023-05-11T10:27:14.854Z,100253.31
2023-05-11T10:29:41.893Z,100243.99
2023-05-11T10:32:09.001Z,100239.20
2023-05-11T10:34:36.171Z,100244.88
2023-05-11T10:37:02.985Z,100240.92
2023-05-11T10:39:29.727Z,100238.55
2023-05-11T10:42:29.148Z,100246.05
2023-05-11T10:45:33.589Z,100236.30
2023-05-11T10:48:25.640Z,100234.48
2023-05-11T10:51:33.279Z,100229.23
2023-05-11T10:54:06.898Z,100229.57
2023-05-11T10:56:43.878Z,100227.63
2023-05-11T10:59:33.861Z,100228.95
2023-05-11T11:02:02.065Z,100229.16
2023-05-11T11:04:46.324Z,100226.55
2023-05-11T11:07:17.642Z,100221.88
2023-05-11T11:09:51.970Z,100218.21
2023-05-11T11:12:20.005Z,100217.84
2023-05-11T11:15:00.645Z,100222.34
2023-05-11T11:17:31.722Z,100220.85
2023-05-11T11:20:00.738Z,100215.02
2023-05-11T11:22:40.891Z,100213.36
2023-05-11T11:25:08.544Z,100215.73
2023-05-11T11:27:41.312Z,100217.12
2023-05-11T11:30:28.537Z,100217.67
2023-05-11T11:33:07.308Z,100213.34
2023-05-11T11:35:40.174Z,100210.08
2023-05-11T11:38:11.666Z,100208.45
2023-05-11T11:40:50.083Z,100208.71
2023-05-11T11:43:27.821Z,100207.98
2023-05-11T11:45:55.794Z,100207.08
2023-05-11T11:48:29.547Z,100203.02
2023-05-11T11:51:08.483Z,100204.94
2023-05-11T11:53:35.958Z,100200.70
2023-05-11T11:56:03.770Z,100204.98
2023-05-11T11:58:46.265Z,100203.02
2023-05-11T12:01:14.386Z,100200.49
2023-05-11T12:03:45.692Z,100198.08
2023-05-11T12:06:12.844Z,100190.39
2023-05-11T12:08:40.426Z,100190.93
2023-05-11T12:11:07.546Z,100190.98
2023-05-11T12:13:34.939Z,100192.21
2023-05-11T12:16:11.938Z,100187.98
2023-05-11T12:18:39.841Z,100190.22
2023-05-11T12:21:07.199Z,100192.75
2023-05-11T12:23:36.026Z,100191.29
2023-05-11T12:26:04.094Z,100192.72
2023-05-11T12:28:32.193Z,100189.64
2023-05-11T12:31:00.608Z,100184.70
2023-05-11T12:33:30.440Z,100185.95
2023-05-11T12:35:57.378Z,100181.35
2023-05-11T12:38:24.140Z,100181.77
2023-05-11T12:40:52.264Z,100182.27
2023-05-11T12:43:20.362Z,100189.23
2023-05-11T12:45:48.847Z,100192.77
2023-05-11T12:48:16.070Z,100185.10
2023-05-11T12:50:44.373Z,100182.09
2023-05-11T12:53:15.347Z,100175.09
2023-05-11T12:55:42.227Z,100182.15
2023-05-11T12:58:11.607Z,100179.73
2023-05-11T13:00:54.433Z,100171.56
2023-05-11T13:03:25.357Z,100173.34
2023-05-11T13:06:03.712Z,100175.33
2023-05-11T13:08:30.969Z,100173.23
2023-05-11T13:11:21.713Z,100172.41
2023-05-11T13:13:49.150Z,100172.58
2023-05-11T13:16:29.506Z,100173.10
2023-05-11T13:19:01.002Z,100170.35
2023-05-11T13:21:29.150Z,100171.36
2023-05-11T13:23:56.196Z,100169.44
2023-05-11T13:26:28.210Z,100165.95
2023-05-11T13:29:08.688Z,100165.98
2023-05-11T13:31:45.311Z,100167.97
2023-05-11T13:34:12.140Z,100163.52
2023-05-11T13:36:39.410Z,100169.27
2023-05-11T13:39:06.617Z,100166.71
2023-05-11T13:41:34.283Z,100163.99
2023-05-11T13:44:01.131Z,100164.94
2023-05-11T13:46:28.444Z,100161.60
2023-05-11T13:48:55.536Z,100158.71
2023-05-11T13:51:22.477Z,100153.73
2023-05-11T13:53:49.386Z,100154.92
2023-05-11T13:56:18.830Z,100154.29
2023-05-11T13:58:45.722Z,100152.58
2023-05-11T14:01:12.602Z,100155.78
2023-05-11T14:03:39.455Z,100152.95
2023-05-11T14:06:06.826Z,100152.20
2023-05-11T14:08:33.903Z,100144.95
2023-05-11T14:11:01.131Z,100145.08
2023-05-11T14:13:28.204Z,100145.60
2023-05-11T14:15:55.495Z,100148.11
2023-05-11T14:18:24.258Z,100141.08
2023-05-11T14:20:51.640Z,100143.71
2023-05-11T14:23:18.380Z,100146.66
2023-05-11T14:25:46.648Z,100145.10
2023-05-11T14:28:13.443Z,100142.64
2023-05-11T14:30:40.503Z,100139.56
2023-05-11T14:33:07.363Z,100138.27
2023-05-11T14:35:34.316Z,100136.52
2023-05-11T14:38:02.351Z,100133.70
2023-05-11T14:40:29.565Z,100132.48
2023-05-11T14:42:56.297Z,100131.06
2023-05-11T14:45:23.089Z,100125.27
2023-05-11T14:47:50.374Z,100124.71
2023-05-11T14:50:17.418Z,100125.01
2023-05-11T14:52:46.435Z,100128.90
2023-05-11T14:55:13.242Z,100125.56
2023-05-11T14:57:40.135Z,100124.77
2023-05-11T15:00:08.240Z,100120.94
2023-05-11T15:02:35.468Z,100124.92
2023-05-11T15:05:02.311Z,100120.67
2023-05-11T15:07:29.383Z,100114.97
2023-05-11T15:09:56.307Z,100119.55
2023-05-11T15:12:23.653Z,100121.94
2023-05-11T15:14:51.301Z,100119.61
2023-05-11T15:17:18.077Z,100128.98
2023-05-11T15:19:44.876Z,100122.16
2023-05-11T15:22:13.340Z,100121.39
2023-05-11T15:24:40.634Z,100121.04
2023-05-11T15:27:07.407Z,100121.26
2023-05-11T15:29:34.445Z,100120.40
2023-05-11T15:32:01.324Z,100116.52
2023-05-11T15:34:29.403Z,100114.91
2023-05-11T15:36:58.113Z,100112.56
2023-05-11T15:39:25.356Z,100113.59
2023-05-11T15:41:52.292Z,100118.09
2023-05-11T15:44:19.302Z,100113.20
2023-05-11T15:46:46.817Z,100120.38
2023-05-11T15:49:15.301Z,100114.70
2023-05-11T15:51:42.056Z,100110.83
2023-05-11T15:54:08.788Z,100113.23
2023-05-11T15:56:35.909Z,100110.31
2023-05-11T15:59:03.592Z,100108.73
2023-05-11T16:01:30.509Z,100110.65
2023-05-11T16:03:57.410Z,100107.66
2023-05-11T16:06:24.515Z,100115.77
2023-05-11T16:08:52.608Z,100113.45
2023-05-11T16:11:19.467Z,100114.95
2023-05-11T16:13:46.183Z,100113.63
2023-05-11T16:16:13.367Z,100116.69
2023-05-11T16:18:40.362Z,100115.08
2023-05-11T16:21:07.813Z,100118.36
2023-05-11T16:23:41.441Z,100114.48
2023-05-11T16:26:08.428Z,100112.75
2023-05-11T16:28:35.726Z,100111.31
2023-05-11T16:31:02.685Z,100110.42
2023-05-11T16:33:29.492Z,100109.66
2023-05-11T16:35:56.477Z,100112.45
2023-05-11T16:38:23.318Z,100112.47
2023-05-11T16:40:50.310Z,100110.38
2023-05-11T16:43:17.020Z,100106.87
2023-05-11T16:45:43.965Z,100106.25
2023-05-11T16:48:12.173Z,100104.69
2023-05-11T16:50:38.932Z,100102.18
2023-05-11T16:53:06.021Z,100103.99
2023-05-11T16:55:34.718Z,100107.04
2023-05-11T16:58:01.739Z,100107.15
2023-05-11T17:00:29.014Z,100105.04
2023-05-11T17:02:56.064Z,100102.09
2023-05-11T17:05:23.627Z,100102.63
2023-05-11T17:07:50.529Z,100100.35
2023-05-11T17:10:17.706Z,100101.63
2023-05-11T17:12:45.110Z,100100.30
2023-05-11T17:15:12.187Z,100106.86
2023-05-11T17:17:40.591Z,100106.14
2023-05-11T17:20:09.659Z,100104.52
2023-05-11T17:22:37.321Z,100108.09
2023-05-11T17:25:05.703Z,100109.60
2023-05-11T17:27:32.485Z,100115.08
2023-05-11T17:29:59.544Z,100112.18
2023-05-11T17:32:26.477Z,100111.86
2023-05-11T17:34:53.533Z,100117.98
2023-05-11T17:37:31.095Z,100116.52
2023-05-11T17:40:02.625Z,100117.08
2023-05-11T17:42:30.195Z,100119.52
2023-05-11T17:44:57.320Z,100119.91
2023-05-11T17:47:24.165Z,100119.65
2023-05-11T17:49:50.969Z,100120.67
2023-05-11T17:52:17.866Z,100124.72
2023-05-11T17:54:44.817Z,100122.90
2023-05-11T17:57:11.657Z,100125.80
2023-05-11T17:59:38.507Z,100122.88
2023-05-11T18:02:05.373Z,100127.16
2023-05-11T18:04:35.694Z,100133.38
2023-05-11T18:07:03.431Z,100132.83
2023-05-11T18:09:30.435Z,100132.94
2023-05-11T18:11:57.608Z,100133.70
2023-05-11T18:14:27.191Z,100134.58
2023-05-11T18:16:53.979Z,100137.49
2023-05-11T18:19:21.522Z,100131.51
2023-05-11T18:21:49.263Z,100133.98
2023-05-11T18:24:17.663Z,100137.38
2023-05-11T18:26:44.574Z,100136.40
2023-05-11T18:29:11.264Z,100142.92
2023-05-11T18:31:38.111Z,100141.54
2023-05-11T18:34:05.305Z,100139.61
2023-05-11T18:36:32.608Z,100138.05
2023-05-11T18:38:59.614Z,100145.08
2023-05-11T18:41:27.402Z,100141.50
2023-05-11T18:43:54.167Z,100140.98
2023-05-11T18:46:21.282Z,100152.27
2023-05-11T18:48:49.985Z,100156.73
2023-05-11T18:51:19.395Z,100156.52
2023-05-11T18:53:46.135Z,100145.93
2023-05-11T18:56:12.952Z,100152.12
2023-05-11T18:58:39.694Z,100148.50
2023-05-11T19:01:07.104Z,100150.68
2023-05-11T19:03:35.598Z,100147.60
2023-05-11T19:06:02.606Z,100147.10
2023-05-11T19:08:29.885Z,100143.33
2023-05-11T19:11:04.249Z,100147.19
2023-05-11T19:13:31.404Z,100145.42
2023-05-11T19:15:58.133Z,100141.16
2023-05-11T19:18:26.537Z,100140.98
2023-05-11T19:20:53.422Z,100141.92
2023-05-11T19:23:20.755Z,100148.13
2023-05-11T19:25:47.514Z,100146.25
2023-05-11T19:28:14.676Z,100141.57
2023-05-11T19:30:41.491Z,100140.29
2023-05-11T19:33:08.732Z,100143.48
2023-05-11T19:35:35.537Z,100146.96
2023-05-11T19:38:02.663Z,100145.48
2023-05-11T19:43:00.435Z,100137.18
2023-05-11T19:45:33.423Z,100133.13
2023-05-11T19:48:00.334Z,100134.63
2023-05-11T19:50:27.436Z,100138.27
2023-05-11T19:52:54.743Z,100137.77
2023-05-11T19:55:23.885Z,100140.27
2023-05-11T19:57:51.228Z,100141.20
2023-05-11T20:00:19.039Z,100139.39
2023-05-11T20:02:46.398Z,100141.94
2023-05-11T20:05:13.386Z,100140.04
2023-05-11T20:07:42.617Z,100139.54
2023-05-11T20:10:10.054Z,100142.82
2023-05-11T20:12:37.968Z,100141.86
2023-05-11T20:15:06.736Z,100142.23
2023-05-11T20:17:35.110Z,100144.83
2023-05-11T20:20:02.164Z,100148.24
2023-05-11T20:22:30.688Z,100150.04
2023-05-11T20:24:57.615Z,100149.69
2023-05-11T20:27:24.857Z,100154.52
2023-05-11T20:29:52.119Z,100152.45
2023-05-11T20:32:18.889Z,100154.96
2023-05-11T20:34:45.726Z,100153.39
2023-05-11T20:37:13.588Z,100156.95
2023-05-11T20:39:40.362Z,100153.59
2023-05-11T20:42:08.092Z,100160.65
2023-05-11T20:44:35.066Z,100157.58
2023-05-11T20:47:01.926Z,100158.55
2023-05-11T20:49:38.161Z,100159.31
2023-05-11T20:52:07.103Z,100163.52
2023-05-11T20:54:34.301Z,100161.22
2023-05-11T20:57:04.638Z,100155.88
2023-05-11T21:02:02.049Z,100141.17
2023-05-11T21:04:30.758Z,100147.22
2023-05-11T21:06:57.821Z,100145.46
2023-05-11T21:09:24.843Z,100147.19
2023-05-11T21:11:51.832Z,100149.92
2023-05-11T21:14:18.597Z,100155.90
2023-05-11T21:16:45.508Z,100155.48
2023-05-11T21:19:12.357Z,100152.59
2023-05-11T21:21:39.127Z,100148.37
2023-05-11T21:24:06.226Z,100143.98
2023-05-11T21:26:33.508Z,100150.11
2023-05-11T21:29:00.234Z,100148.85
2023-05-11T21:31:27.017Z,100145.98
2023-05-11T21:33:53.820Z,100150.24
2023-05-11T21:36:21.663Z,100148.13
2023-05-11T21:38:48.495Z,100143.66
2023-05-11T21:41:16.230Z,100142.59
2023-05-11T21:43:42.958Z,100147.73
2023-05-11T21:46:09.923Z,100153.15
2023-05-11T21:48:36.703Z,100150.33
2023-05-11T21:51:03.642Z,100150.52
2023-05-11T21:53:30.588Z,100150.76
2023-05-11T21:55:57.458Z,100155.93
2023-05-11T21:58:24.220Z,100154.09
2023-05-11T22:00:51.882Z,100153.89
2023-05-11T22:03:18.952Z,100156.04
2023-05-11T22:05:46.454Z,100160.86
2023-05-11T22:08:15.262Z,100159.20
2023-05-11T22:10:42.664Z,100160.17
2023-05-11T22:13:09.394Z,100161.52
2023-05-11T22:15:36.673Z,100163.64
2023-05-11T22:18:04.440Z,100161.61
2023-05-11T22:20:31.544Z,100163.39
2023-05-11T22:22:58.603Z,100165.40
2023-05-11T22:25:25.352Z,100164.79
2023-05-11T22:27:52.112Z,100169.70
2023-05-11T22:30:19.557Z,100169.86
2023-05-11T22:32:46.720Z,100174.06
2023-05-11T22:35:13.528Z,100172.67
2023-05-11T22:37:40.260Z,100170.95
2023-05-11T22:40:08.280Z,100172.45
2023-05-11T22:42:35.219Z,100174.40
2023-05-11T22:45:01.936Z,100173.46
2023-05-11T22:47:28.992Z,100176.64
2023-05-11T22:49:55.889Z,100173.52
2023-05-11T22:52:22.620Z,100177.39
2023-05-11T22:54:54.577Z,100177.61
2023-05-11T22:57:23.400Z,100177.80
2023-05-11T22:59:50.226Z,100173.43
2023-05-11T23:02:17.086Z,100176.64
2023-05-11T23:04:47.941Z,100174.61
2023-05-11T23:07:14.634Z,100177.86
2023-05-11T23:09:41.363Z,100179.51
2023-05-11T23:12:08.167Z,100166.94
2023-05-11T23:14:35.416Z,100159.74
2023-05-11T23:17:02.228Z,100167.01
2023-05-11T23:19:29.458Z,100168.64
2023-05-11T23:21:56.308Z,100165.48
2023-05-11T23:24:23.053Z,100158.52
2023-05-11T23:26:50.118Z,100154.66
2023-05-11T23:29:16.922Z,100151.17
2023-05-11T23:31:43.727Z,100151.58
2023-05-11T23:34:10.449Z,100161.98
2023-05-11T23:36:37.583Z,100165.36
2023-05-11T23:39:04.831Z,100167.66
2023-05-11T23:41:32.098Z,100163.66
2023-05-11T23:43:59.948Z,100166.67
2023-05-11T23:46:26.686Z,100166.60
2023-05-11T23:48:54.050Z,100161.71
2023-05-11T23:51:20.947Z,100161.14
2023-05-11T23:53:47.715Z,100161.02
2023-05-11T23:56:14.588Z,100158.09
2023-05-11T23:58:44.917Z,100162.48
